Time;durP1;ratioP1;P1;durP2;ratioP2;P2;SDS_P1;SDS_P2;PMS_P1;PMS_P2;Temp;Humidity;BMP_temperature;BMP_pressure;BME280_temperature;BME280_humidity;BME280_pressure;Samples;Min_cycle;Max_cycle;Signal;HPM_P1;HPM_P2
2022/12/11 05:38:52;;;;;;;46.30;12.30;;;;;;;3.32;97.99;97845.39;1756061;80;22728;-38
2022/12/11 05:41:23;;;;;;;22.37;11.28;;;;;;;3.41;96.37;97839.28;1763186;81;21010;-38
2022/12/11 05:43:50;;;;;;;25.52;10.03;;;;;;;3.38;96.94;97839.98;1766355;80;21150;-39
2022/12/11 05:46:21;;;;;;;33.63;11.25;;;;;;;3.38;97.26;97844.00;1756935;81;21012;-39
2022/12/11 05:48:49;;;;;;;40.03;11.28;;;;;;;3.42;97.19;97844.86;1758055;81;20929;-39
2022/12/11 05:51:16;;;;;;;21.57;10.35;;;;;;;3.42;97.03;97834.92;1789861;80;20984;-39
2022/12/11 05:53:44;;;;;;;38.40;10.13;;;;;;;3.39;96.97;97820.87;1757117;81;20992;-39
2022/12/11 05:56:17;;;;;;;34.60;9.60;;;;;;;3.49;96.58;97827.58;1775189;80;21222;-39
2022/12/11 05:58:44;;;;;;;31.33;9.40;;;;;;;3.53;96.32;97821.77;1770638;81;21011;-39
2022/12/11 06:01:15;;;;;;;18.15;9.08;;;;;;;3.53;96.34;97811.61;1770794;81;21030;-39
2022/12/11 06:03:42;;;;;;;45.52;9.10;;;;;;;3.55;96.25;97802.08;1770896;81;20976;-39
2022/12/11 06:06:08;;;;;;;44.75;8.75;;;;;;;3.59;95.71;97800.80;1770856;81;20984;-39
2022/12/11 06:08:36;;;;;;;25.50;8.65;;;;;;;3.58;95.71;97788.56;1770904;81;21259;-39
2022/12/11 06:11:05;;;;;;;19.12;8.20;;;;;;;3.55;95.88;97791.36;1770821;81;21506;-39
2022/12/11 06:13:33;;;;;;;47.48;9.05;;;;;;;3.60;95.68;97785.73;1770894;81;21000;-39
2022/12/11 06:16:02;;;;;;;28.07;8.25;;;;;;;3.65;95.48;97790.81;1770906;81;20976;-39
2022/12/11 06:18:29;;;;;;;27.40;8.58;;;;;;;3.67;95.73;97799.28;1771059;81;20901;-39
2022/12/11 06:20:56;;;;;;;36.48;8.25;;;;;;;3.71;95.50;97790.75;1770818;81;21114;-39
2022/12/11 06:23:23;;;;;;;62.85;9.03;;;;;;;3.76;95.22;97788.35;1770700;81;21497;-39
2022/12/11 11:00:37;;;;;;;4.58;3.92;;;;;;;6.94;100.00;97223.67;1850360;76;23431;-39
2022/12/11 11:03:24;;;;;;;4.33;3.92;;;;;;;7.01;100.00;97216.17;1817161;78;20973;-39
2022/12/11 11:06:16;;;;;;;9.45;4.10;;;;;;;7.01;100.00;97213.48;1818249;78;21096;-39
2022/12/11 11:08:46;;;;;;;4.22;3.35;;;;;;;6.96;100.00;97204.64;1808108;78;21519;-39
2022/12/11 11:11:31;;;;;;;3.42;3.10;;;;;;;6.97;100.00;97208.11;1818786;78;20974;-39
2022/12/11 11:14:19;;;;;;;4.15;3.42;;;;;;;7.01;100.00;97196.74;1818574;78;20942;-39
2022/12/11 11:16:48;;;;;;;3.42;3.12;;;;;;;7.09;100.00;97196.13;1816025;78;20982;-39
2022/12/11 11:19:34;;;;;;;3.45;3.15;;;;;;;7.08;100.00;97195.36;1818379;78;22123;-39
2022/12/11 11:22:07;;;;;;;3.60;2.77;;;;;;;7.14;100.00;97189.00;1790186;78;20911;-39
2022/12/11 11:24:39;;;;;;;3.72;3.37;;;;;;;7.22;100.00;97185.12;1786190;80;20991;-39
2022/12/11 11:27:16;;;;;;;4.75;3.10;;;;;;;7.26;100.00;97175.13;1786255;80;21560;-39
2022/12/11 11:29:43;;;;;;;3.15;2.95;;;;;;;7.32;100.00;97172.96;1779956;80;20980;-39
2022/12/11 11:32:21;;;;;;;3.87;3.52;;;;;;;7.38;100.00;97167.36;1786427;80;21513;-39
2022/12/11 11:34:47;;;;;;;3.58;3.27;;;;;;;7.42;100.00;97160.60;1784183;80;21504;-39
2022/12/11 11:37:30;;;;;;;3.60;3.17;;;;;;;7.46;100.00;97160.00;1786261;80;20920;-39
2022/12/11 11:40:05;;;;;;;5.05;3.62;;;;;;;7.58;100.00;97152.06;1786432;80;20982;-39
2022/12/11 11:43:17;;;;;;;3.52;3.22;;;;;;;7.68;100.00;97151.25;1785321;80;21500;-39
2022/12/11 11:46:07;;;;;;;3.70;2.85;;;;;;;7.73;100.00;97141.39;1786560;80;21242;-39
2022/12/11 11:48:54;;;;;;;3.47;3.17;;;;;;;7.86;100.00;97139.19;1786336;80;20976;-39
2022/12/11 11:51:32;;;;;;;2.80;2.55;;;;;;;7.99;100.00;97136.05;1786202;80;21014;-39
2022/12/11 11:54:01;;;;;;;3.02;2.52;;;;;;;8.10;100.00;97133.44;1786139;80;21369;-39
2022/12/11 11:56:36;;;;;;;3.90;3.05;;;;;;;8.21;100.00;97130.09;1786206;80;21544;-39
2022/12/11 11:59:31;;;;;;;2.92;2.62;;;;;;;8.31;100.00;97126.38;1786409;80;21170;-39
2022/12/11 12:01:58;;;;;;;2.98;2.70;;;;;;;8.40;100.00;97123.41;1777503;80;20972;-39
2022/12/11 12:04:33;;;;;;;3.45;3.10;;;;;;;8.53;100.00;97123.66;1758066;80;21011;-39
2022/12/11 12:07:15;;;;;;;3.65;2.83;;;;;;;8.57;100.00;97123.05;1786463;80;21071;-39
2022/12/11 12:10:30;;;;;;;3.10;2.62;;;;;;;8.64;100.00;97102.73;1786545;80;21011;-39
2022/12/11 12:13:26;;;;;;;3.77;3.00;;;;;;;8.77;100.00;97113.78;1785534;80;23114;-39
2022/12/11 12:15:57;;;;;;;3.72;2.90;;;;;;;8.82;100.00;97106.02;1784977;80;21457;-39
2022/12/11 12:18:48;;;;;;;3.22;2.62;;;;;;;8.81;100.00;97097.72;1785476;80;21519;-39
2022/12/11 12:21:35;;;;;;;4.95;3.00;;;;;;;8.88;100.00;97096.31;1757822;80;20983;-39
2022/12/11 12:24:36;;;;;;;3.27;2.95;;;;;;;8.93;100.00;97093.16;1785573;80;21066;-39
2022/12/11 12:27:25;;;;;;;2.70;2.50;;;;;;;8.94;100.00;97088.53;1785642;80;21129;-39
2022/12/11 12:30:00;;;;;;;3.25;2.40;;;;;;;8.96;100.00;97092.34;1785215;80;20967;-39
2022/12/11 12:32:51;;;;;;;4.35;3.35;;;;;;;9.06;100.00;97096.09;1785454;80;20956;-39
2022/12/11 12:35:36;;;;;;;3.70;2.87;;;;;;;9.09;100.00;97081.22;1785520;80;21537;-39
2022/12/11 12:38:23;;;;;;;3.20;2.62;;;;;;;9.11;100.00;97081.55;1785732;80;21034;-39
2022/12/11 12:41:07;;;;;;;3.35;2.60;;;;;;;9.15;100.00;97079.58;1785745;80;21224;-39
2022/12/11 12:43:55;;;;;;;4.05;3.40;;;;;;;9.22;100.00;97082.02;1779985;80;20955;-39
2022/12/11 12:46:49;;;;;;;3.37;2.83;;;;;;;9.22;100.00;97086.07;1785879;80;21015;-39
2022/12/11 12:49:24;;;;;;;2.92;2.62;;;;;;;9.26;100.00;97080.03;1785917;80;21078;-39
2022/12/11 12:51:51;;;;;;;3.60;3.02;;;;;;;9.33;100.00;97070.48;1785117;80;21003;-39
2022/12/11 12:54:18;;;;;;;3.65;2.75;;;;;;;9.34;100.00;97070.09;1785861;80;21125;-39
2022/12/11 12:56:45;;;;;;;2.60;2.30;;;;;;;9.36;100.00;97073.14;1785928;80;21024;-39
2022/12/11 12:59:24;;;;;;;2.95;2.55;;;;;;;9.42;100.00;97074.22;1785839;80;20920;-40
2022/12/11 13:02:00;;;;;;;3.25;2.80;;;;;;;9.50;100.00;97075.65;1785758;80;21027;-39
2022/12/11 13:04:42;;;;;;;2.75;2.52;;;;;;;9.52;100.00;97069.84;1785728;80;21007;-39
2022/12/11 13:07:26;;;;;;;2.72;2.33;;;;;;;9.56;100.00;97054.33;1785751;80;21845;-40
2022/12/11 13:10:06;;;;;;;2.70;2.10;;;;;;;9.59;100.00;97055.62;1785900;80;20944;-39
2022/12/11 13:12:43;;;;;;;3.20;2.30;;;;;;;9.60;99.88;97055.03;1776728;80;21011;-39
2022/12/11 13:15:35;;;;;;;2.25;2.05;;;;;;;9.57;99.98;97056.63;1785607;80;20968;-39
2022/12/11 13:18:37;;;;;;;2.77;2.47;;;;;;;9.61;99.80;97047.11;1785532;80;21047;-39
2022/12/11 13:21:35;;;;;;;3.05;2.20;;;;;;;9.64;99.51;97043.57;1785544;80;21961;-39
2022/12/11 13:24:23;;;;;;;3.20;2.20;;;;;;;9.60;99.69;97040.16;1785493;80;21552;-39
2022/12/11 13:26:49;;;;;;;2.70;2.02;;;;;;;9.59;99.92;97045.38;1785471;80;21015;-39
2022/12/11 13:29:40;;;;;;;2.22;2.02;;;;;;;9.68;99.73;97042.19;1785814;80;21525;-39
2022/12/11 13:32:18;;;;;;;2.15;1.95;;;;;;;9.73;99.37;97051.94;1786025;80;21566;-39
2022/12/11 13:34:56;;;;;;;2.17;1.92;;;;;;;9.72;99.49;97035.55;1785707;80;21442;-39
2022/12/11 13:37:31;;;;;;;2.83;2.00;;;;;;;9.72;99.42;97047.72;1785333;80;21533;-39
2022/12/11 13:40:00;;;;;;;2.87;2.17;;;;;;;9.79;99.32;97029.24;1785533;80;20975;-40
2022/12/11 13:42:49;;;;;;;2.98;2.55;;;;;;;9.85;98.77;97035.14;1785949;80;21019;-39
2022/12/11 13:45:28;;;;;;;2.10;1.90;;;;;;;9.84;99.00;97028.78;1785938;80;21027;-40
2022/12/11 13:48:00;;;;;;;3.35;2.25;;;;;;;9.84;99.09;97025.48;1776451;80;21143;-39
2022/12/11 13:50:32;;;;;;;4.47;2.10;;;;;;;9.89;98.57;97027.73;1785502;80;20960;-39
2022/12/11 13:53:02;;;;;;;2.92;2.45;;;;;;;9.95;98.19;97027.45;1785487;80;20920;-39
2022/12/11 13:55:32;;;;;;;3.65;2.33;;;;;;;9.97;98.27;97027.04;1785550;80;20991;-39
2022/12/11 13:57:59;;;;;;;2.98;2.40;;;;;;;9.99;98.06;97021.97;1785659;80;20920;-39
2022/12/11 14:00:31;;;;;;;3.12;2.52;;;;;;;10.04;97.60;97023.62;1785548;80;21295;-39
2022/12/11 14:03:06;;;;;;;3.27;2.50;;;;;;;10.10;97.23;97031.27;1785657;80;21045;-39
2022/12/11 14:05:33;;;;;;;2.52;2.12;;;;;;;10.08;97.29;97026.84;1785699;80;20944;-40
2022/12/11 14:08:05;;;;;;;2.25;2.05;;;;;;;10.06;97.08;97026.51;1785431;80;21430;-40
2022/12/11 14:10:32;;;;;;;3.17;2.58;;;;;;;10.11;97.06;97025.45;1785835;80;20960;-39
2022/12/11 14:13:02;;;;;;;3.45;2.75;;;;;;;10.17;97.04;97026.52;1785571;80;21187;-40
2022/12/11 14:15:31;;;;;;;2.70;2.05;;;;;;;10.18;96.92;97023.99;1785465;80;20955;-39
2022/12/11 14:17:58;;;;;;;2.92;2.40;;;;;;;10.21;96.67;97029.19;1785612;80;20900;-40
2022/12/11 14:20:29;;;;;;;2.80;2.60;;;;;;;10.25;96.47;97023.11;1785488;80;21532;-40
2022/12/11 14:23:17;;;;;;;3.98;2.87;;;;;;;10.31;96.17;97025.53;1785096;80;21051;-39
2022/12/11 14:25:58;;;;;;;2.80;2.50;;;;;;;10.31;96.30;97025.53;1785606;80;21113;-39
2022/12/11 14:28:26;;;;;;;3.33;2.67;;;;;;;10.32;96.44;97018.91;1785623;80;21059;-39
2022/12/11 14:30:58;;;;;;;3.02;2.72;;;;;;;10.37;96.32;97023.27;1785847;80;20999;-39
2022/12/11 14:33:30;;;;;;;4.03;2.95;;;;;;;10.41;96.20;97023.20;1785735;80;20976;-39
2022/12/11 18:54:08;;;;;;;3.42;3.12;;;;;;;6.31;89.57;97246.75;1755701;80;22304;-39
2022/12/11 18:56:37;;;;;;;5.08;3.52;;;;;;;6.32;89.08;97248.29;1743984;81;20909;-39
2022/12/11 18:59:04;;;;;;;4.00;3.60;;;;;;;6.18;89.12;97249.61;1761351;81;21110;-40
2022/12/11 19:01:32;;;;;;;4.40;3.25;;;;;;;6.08;89.07;97263.80;1752756;81;21540;-39
2022/12/11 19:04:00;;;;;;;5.50;4.10;;;;;;;6.01;88.32;97273.19;1753046;81;20933;-39
2022/12/11 19:06:29;;;;;;;4.58;3.55;;;;;;;5.94;88.09;97290.66;1753085;81;21506;-39
2022/12/11 19:08:57;;;;;;;6.80;4.40;;;;;;;5.84;87.70;97300.77;1752811;81;21513;-40
2022/12/11 19:11:26;;;;;;;6.35;4.47;;;;;;;5.75;87.86;97302.46;1752896;81;21854;-39
2022/12/11 19:13:55;;;;;;;4.10;3.50;;;;;;;5.71;87.24;97303.59;1752437;81;20969;-40
2022/12/11 19:16:25;;;;;;;5.33;4.00;;;;;;;5.64;86.95;97302.41;1753100;81;20980;-40
2022/12/11 19:18:52;;;;;;;3.75;3.20;;;;;;;5.56;87.14;97300.84;1752685;81;21095;-39
2022/12/11 19:21:20;;;;;;;5.33;4.10;;;;;;;5.46;86.92;97308.84;1752790;81;21017;-40
2022/12/11 19:23:47;;;;;;;6.50;4.92;;;;;;;5.42;86.69;97318.20;1752561;81;21244;-39
2022/12/11 19:26:16;;;;;;;6.00;4.78;;;;;;;5.41;86.57;97328.77;1752623;81;21515;-39
2022/12/11 19:28:44;;;;;;;4.85;4.12;;;;;;;5.30;86.42;97335.98;1752752;81;21506;-39
2022/12/11 19:31:13;;;;;;;7.05;4.65;;;;;;;5.21;86.84;97341.69;1752939;81;21039;-39
2022/12/11 19:33:40;;;;;;;5.72;4.72;;;;;;;5.19;86.73;97332.44;1752819;81;21620;-39
2022/12/11 19:36:11;;;;;;;6.50;4.78;;;;;;;5.14;86.57;97342.19;1752733;81;21247;-39
2022/12/11 19:38:38;;;;;;;5.65;4.33;;;;;;;5.03;86.75;97347.50;1752701;81;21011;-39
2022/12/11 19:41:07;;;;;;;6.72;4.65;;;;;;;4.99;86.65;97359.33;1752987;81;20996;-39
2022/12/11 19:43:34;;;;;;;5.37;4.35;;;;;;;4.96;86.35;97354.70;1752494;81;21814;-40
2022/12/11 19:46:06;;;;;;;6.45;4.40;;;;;;;4.93;86.13;97359.48;1753151;81;21000;-39
2022/12/11 19:48:36;;;;;;;9.43;6.40;;;;;;;4.85;86.24;97371.28;1752772;81;21235;-40
2022/12/11 19:51:05;;;;;;;6.33;4.47;;;;;;;4.76;86.54;97361.63;1753390;81;20984;-39
2022/12/11 19:53:33;;;;;;;6.30;4.67;;;;;;;4.76;86.01;97368.91;1752917;81;21088;-40
2022/12/11 19:55:59;;;;;;;5.60;4.20;;;;;;;4.72;86.02;97388.23;1752501;81;20990;-39
2022/12/11 19:58:26;;;;;;;6.10;4.72;;;;;;;4.63;86.11;97379.15;1752557;81;21541;-39
2022/12/11 20:00:53;;;;;;;5.70;4.03;;;;;;;4.55;85.87;97379.45;1752283;81;23138;-39
2022/12/11 20:03:19;;;;;;;4.47;4.08;;;;;;;4.54;85.81;97377.33;1752165;81;20948;-39
2022/12/11 20:05:46;;;;;;;5.05;4.35;;;;;;;4.51;85.20;97394.14;1752203;81;21037;-39
2022/12/11 20:08:13;;;;;;;4.03;3.62;;;;;;;4.44;85.42;97398.67;1752317;81;21004;-39
2022/12/11 20:10:39;;;;;;;4.12;3.60;;;;;;;4.34;85.08;97408.14;1752433;81;21385;-39
2022/12/11 20:13:06;;;;;;;4.85;4.12;;;;;;;4.32;85.34;97411.19;1752212;81;21240;-39
2022/12/11 20:15:33;;;;;;;4.12;3.72;;;;;;;4.31;85.09;97418.25;1752069;81;20933;-39
2022/12/11 20:18:00;;;;;;;4.90;3.70;;;;;;;4.25;85.09;97429.11;1752433;81;21111;-39
2022/12/11 20:20:29;;;;;;;5.20;3.95;;;;;;;4.18;85.38;97429.02;1752282;81;20972;-40
2022/12/11 20:22:57;;;;;;;4.30;3.65;;;;;;;4.14;85.38;97430.31;1752226;81;21072;-39
2022/12/11 20:25:27;;;;;;;6.00;4.08;;;;;;;4.14;85.29;97425.52;1752445;81;21096;-39
2022/12/11 20:27:56;;;;;;;4.47;3.75;;;;;;;4.08;85.05;97433.66;1752347;81;21012;-40
2022/12/11 20:30:23;;;;;;;5.42;3.80;;;;;;;4.01;84.81;97418.84;1752392;81;20933;-39
2022/12/11 20:32:51;;;;;;;3.40;3.10;;;;;;;3.96;84.91;97401.16;1752194;81;20961;-39
2022/12/11 20:35:18;;;;;;;4.28;3.75;;;;;;;3.94;84.88;97394.81;1752522;81;21643;-39
2022/12/11 20:37:44;;;;;;;3.70;3.30;;;;;;;3.90;84.93;97399.92;1752173;81;21244;-39
2022/12/11 20:40:12;;;;;;;3.50;3.12;;;;;;;3.85;85.15;97397.00;1752279;81;20937;-39
2022/12/11 20:42:39;;;;;;;3.15;2.70;;;;;;;3.82;85.30;97400.98;1752149;81;21035;-39
2022/12/11 20:45:08;;;;;;;3.58;2.65;;;;;;;3.84;84.62;97423.59;1752451;81;21552;-39
2022/12/11 20:47:34;;;;;;;4.35;3.17;;;;;;;3.77;82.96;97430.77;1752264;81;21052;-39
2022/12/11 20:50:01;;;;;;;3.00;2.70;;;;;;;3.63;83.02;97434.58;1752293;81;21224;-39
2022/12/11 20:52:27;;;;;;;4.22;2.90;;;;;;;3.50;83.17;97440.69;1752620;81;21042;-40
2022/12/11 20:54:54;;;;;;;3.05;2.50;;;;;;;3.43;83.21;97449.41;1763569;81;20964;-39
2022/12/11 20:57:22;;;;;;;2.95;2.30;;;;;;;3.37;82.72;97458.09;1763134;81;21019;-39
2022/12/11 20:59:48;;;;;;;3.25;2.62;;;;;;;3.26;82.64;97459.25;1761222;81;21035;-39
2022/12/11 21:02:15;;;;;;;2.37;2.17;;;;;;;3.13;82.79;97459.78;1763603;81;21238;-39
2022/12/11 21:04:42;;;;;;;2.77;2.05;;;;;;;3.01;82.94;97452.69;1763170;81;21520;-39
2022/12/11 21:07:09;;;;;;;2.67;1.95;;;;;;;2.98;82.69;97449.39;1761114;81;20928;-40
2022/12/11 21:09:36;;;;;;;2.45;2.10;;;;;;;2.91;82.65;97459.39;1763390;81;21011;-39
2022/12/11 21:12:06;;;;;;;2.30;2.10;;;;;;;2.83;82.95;97454.27;1763121;81;21067;-40
2022/12/11 21:14:32;;;;;;;1.90;1.50;;;;;;;2.74;82.67;97457.18;1761333;81;21188;-39
2022/12/11 21:16:59;;;;;;;2.00;1.82;;;;;;;2.56;82.27;97446.16;1763354;81;21032;-40
2022/12/11 21:19:26;;;;;;;1.70;1.60;;;;;;;2.64;82.23;97463.09;1763481;81;21545;-39
2022/12/11 21:21:53;;;;;;;2.20;1.80;;;;;;;2.58;82.52;97468.52;1763555;81;21076;-39
2022/12/11 21:24:25;;;;;;;2.27;1.77;;;;;;;2.52;82.47;97477.38;1763539;81;21490;-39
2022/12/11 21:26:54;;;;;;;1.70;1.60;;;;;;;2.52;82.16;97482.73;1763633;81;21250;-39
2022/12/11 21:29:24;;;;;;;2.17;1.98;;;;;;;2.54;82.26;97486.41;1763528;81;21627;-39
2022/12/11 21:31:51;;;;;;;3.65;2.37;;;;;;;2.47;82.28;97488.36;1756072;81;20959;-40
2022/12/11 21:34:18;;;;;;;2.33;1.87;;;;;;;2.41;82.44;97490.34;1763699;81;21084;-39
2022/12/11 21:36:46;;;;;;;1.87;1.70;;;;;;;2.35;82.51;97488.51;1763283;81;21044;-39
2022/12/11 21:39:13;;;;;;;2.50;2.30;;;;;;;2.33;82.39;97484.06;1761238;81;21863;-39
2022/12/11 21:41:40;;;;;;;2.22;2.02;;;;;;;2.29;82.57;97493.91;1763666;80;21534;-39
2022/12/11 21:44:07;;;;;;;2.42;2.22;;;;;;;2.25;82.89;97502.98;1763301;81;20979;-39
2022/12/11 21:46:34;;;;;;;3.00;2.35;;;;;;;2.24;83.19;97505.44;1761136;81;21002;-39
2022/12/11 21:49:01;;;;;;;1.98;1.82;;;;;;;2.25;82.90;97511.78;1763783;80;21538;-39
2022/12/11 21:51:32;;;;;;;2.80;2.47;;;;;;;2.27;82.95;97504.76;1763402;81;21084;-39
2022/12/11 21:53:59;;;;;;;2.60;2.37;;;;;;;2.25;83.20;97509.67;1760972;81;20880;-40
2022/12/11 21:56:26;;;;;;;2.75;2.30;;;;;;;2.19;82.98;97495.23;1760700;81;20920;-39
2022/12/11 21:58:53;;;;;;;3.42;2.20;;;;;;;2.17;83.04;97498.06;1746674;82;21640;-39
2022/12/11 22:01:24;;;;;;;4.15;2.27;;;;;;;2.21;82.71;97498.12;1746687;82;21553;-39
2022/12/11 22:03:51;;;;;;;2.58;2.05;;;;;;;2.22;82.48;97490.33;1746569;82;21531;-39
2022/12/11 22:06:18;;;;;;;2.67;2.47;;;;;;;2.21;82.66;97482.09;1746503;82;21013;-39
2022/12/11 22:08:48;;;;;;;2.65;2.45;;;;;;;2.16;82.43;97486.59;1746458;82;21586;-39
2022/12/11 22:11:18;;;;;;;3.20;2.10;;;;;;;2.14;81.98;97472.78;1751968;81;21039;-40
